MET'MAP v2.0
soon released !

Expected late october,
this new version will be
more efficient, smarter,
and hosted on a brand new
server x3 powerfull...
...and still free !


Not compatible ?
Try the mobile version !

LOG IN : | Subscribe | Disclaimer | Who is Orbifly ? |
ICAO code :
Legend : VFR Marginal VFR IFR Intensive IFR Very Intensive IFR
Visi :
Ceiling :
>= 8 km
>= 3000ft
5 to 8 km
1000 to 3000 ft
1500m to 5 km
500 to 1000 ft
800 to 1500m
200 to 500 ft
< 800m
< 200 ft

METAR - EDVE Braunschweig - 30 Mar 2020 11:43 UTC - Data Source NOAA   


- Airport Elevation : 295 ft
- IATA code : BWE
- No reported NOTAMs.


EDVE - Braunschweig

Latest METAR recorded : 2015/08/11 07:50 EDVE 110750Z 31005KT 270V360 9999 OVC007 19/18 Q1017 RMK ATIS J
TAF TAF EDVE
Valid from the 30 at 09:00 until the 30 at 18:00 UTC


300800Z 3009/3018 27008KT 9999 SCT030
TEMPO 3009/3015 4000 -SNRA BKN014
PROB30
TEMPO 3011/3013 2500 SN
BECMG 3015/3017 02008KT

Source NOAA


MET'MAP, your aeronautical weather chart ! - Copyright ORBIFLY December 2007

Programming & Development : Alexandra Zaïnal
Co-Developer : Marc-Olivier Méhu
Technical & hardware support : Manuel Goepfert
Concept & Financing : Baudouin d'Aumeries